Ride Results

New Italy (12-09-2015)
Ride distance: 80.0 km

Outcomes - New Italy (12-09-2015)
Division No. of Entries Retired / DNE Completed Withdrawn Ineligible V/O Percentage Completed
HW 17 - 16 1 - - 94.12%
MW 23 - 19 1 - 3 82.61%
LW 20 - 17 - 1 2 85.00%
JN 6 - 5 - - 1 83.33%
Totals 66 - 57 2 1 6 86.36%
Results - New Italy (12-09-2015)
No. Rider Horse Place Time Leg Speeds Total
Km/Hr
H/R bpm
Heavyweight
58 Doug Dart Cameo Moon River 1 (BC) 4:31:00 17.3, 18.0 17.71 30, 41, 51 (Avg:46)
69 Matthew Gadsby Maximus Ra 2 5:27:00 14.8, 14.5 14.68 39, 46, 50 (Avg:48)
70 Paul Lengronne Royal Windsor Jacob 3 5:31:00 14.9, 14.0 14.50 37, 46, 52 (Avg:49)
8 Len Derkacz Salam Zahbeel 4 5:47:00 16.6, 11.8 13.83 34, 52, 50 (Avg:51)
4 Allison Kay Delilah te 5 6:07:00 13.2, 12.9 13.08 36, 42, 47 (Avg:44)
28 Shane Butler Burralga Angelikh 6 6:20:00 13.0, 12.2 12.63 36, 44, 47 (Avg:45)
12 Maurice Gray Aloha Queen 6 6:20:00 13.0, 12.2 12.63 37, 44, 47 (Avg:45)
50 Mark Nimon Abbeywood Le'Tigre 8 6:32:00 13.1, 11.4 12.24 33, 40, 43 (Avg:41)
21 Ben Herbert Mister Wright 9 6:42:00 12.9, 11.0 11.94 32, 46, 56 (Avg:51)
16 Greg Garred Shannonwood Miss-Me 10 6:46:00 12.4, 11.2 11.82 44, 40, 51 (Avg:45)
29 Paul Roosen Cairo's Gem 11 6:59:00 12.3, 10.7 11.46 35, 44, 48 (Avg:46)
73 Gavin Bartlett Longrun Drifter 12 7:03:00 12.2, 10.5 11.35 34, 39, 46 (Avg:42)
33 Jagaran Hale Merlin 13 7:25:00 10.3, 11.2 10.79 32, 37, 50 (Avg:43)
66 Andrea Nix Homeleigh Mountain Narnia 14 7:36:00 10.4, 10.5 10.53 34, 42, 49 (Avg:45)
15 Peter McDonald Wollumbin Akhhu 15 7:45:00 11.5, 9.3 10.32 46, 55, 53 (Avg:54)
27 Chris Holden True Sensie 16 7:47:00 12.3, 8.8 10.28 32, 44, 47 (Avg:45)
55 Tad Cossins Wollumbin Elle Withdrawn L1 0:00:00 - - 36, 39 (Avg:39)
Middleweight
35 Sabrina Stephens Cameo Silver Bellz 1 (BC) 4:17:00 22.2, 16.1 18.68 33, 44, 52 (Avg:48)
60 Gina Matthews Bones the Wizard 2 4:40:00 17.3, 16.9 17.14 27, 46, 48 (Avg:47)
54 Bill Ward Alcienne Dominion 3 4:44:00 18.6, 15.4 16.90 28, 45, 50 (Avg:47)
67 Narelle Childs Halo Kazaam 4 5:22:00 15.6, 14.2 14.91 37, 40, 53 (Avg:46)
68 Marion Lengronne Aphrodite Malakia 5 5:27:00 14.9, 14.3 14.68 39, 44, 47 (Avg:45)
32 Jennifer Annetts Castlebar Citation 6 5:57:00 13.7, 13.1 13.45 33, 41, 44 (Avg:42)
5 Danielle Kendall Sugarplum te 7 6:07:00 13.2, 12.9 13.08 36, 41, 47 (Avg:44)
3 Penny Toft Charlotte te 7 6:07:00 13.2, 12.9 13.08 38, 38, 46 (Avg:42)
31 Tracey Hutchinson Cherox Merlot 9 6:31:00 12.8, 11.7 12.28 30, 37, 45 (Avg:41)
49 Akhmed Pshunov A'Landell Ali 10 6:32:00 12.7, 11.7 12.24 48, 45, 44 (Avg:44)
43 Fiona Fenech Eus Anzac 11 6:42:00 12.9, 11.0 11.94 35, 43, 42 (Avg:42)
19 Bianca Lamme Benbourough Lad 11 6:42:00 12.9, 11.1 11.94 38, 44, 52 (Avg:48)
74 Olga Bartlett Mt Eerwah Anastazia 13 7:03:00 12.2, 10.5 11.35 27, 38, 43 (Avg:40)
53 Michael Combe Milgarra Dripptu 14 7:13:00 11.7, 10.4 11.09 35, 40, 40 (Avg:40)
65 Derryn Nix Homeleigh Mountain Nazeem 15 7:36:00 10.4, 10.5 10.53 39, 44, 46 (Avg:45)
62 Corey Nix Castlebar Cartier 16 7:42:00 10.3, 10.4 10.39 33, 36, 39 (Avg:37)
47 Hannah Houlden Elfar Kaspa 17 7:44:00 9.9, 10.7 10.34 35, 43, 53 (Avg:48)
25 Karen Lee Markus Romulus 18 7:45:00 10.3, 10.2 10.32 45, 46, 49 (Avg:47)
51 Lainie Zischke The Big Dipper 19 8:04:00 11.6, 8.6 9.92 35, 44, 52 (Avg:48)
7 Maureen Feltham Fenwick Razoul Metabolics moderate L2 0:00:00 14.1, 10.8 - 36, 45, 46 (Avg:45)
11 Stephen Gray Sir Avatar Withdrawn L2 0:00:00 - - 29, 37, 36 (Avg:36)
71 Jessica Gall Escarda Sadiscion Heart Rate L1 0:00:00 11.5 - 52, 56 (Avg:56)
24 Debra Minto Samsara Magic Eagle Lame P/R 0:00:00 - - 33, 35 (Avg:35)
Lightweight
30 Clare Fleming Flemingo Makkaddie 1 4:27:00 18.6, 17.3 17.98 42, 49, 50 (Avg:49)
57 Meleita Dart Cameo Rhodezia 2 (BC) 4:30:00 17.3, 18.1 17.78 26, 40, 43 (Avg:41)
2 Alexandra Toft Sweetpea te 3 5:26:00 14.9, 14.5 14.72 32, 40, 43 (Avg:41)
10 Annette Chamberlain Annordean Lady Annette 4 5:31:00 14.9, 14.0 14.50 27, 38, 39 (Avg:38)
13 Xanthe Webb Zippidy Dodah te 5 6:04:00 13.2, 13.1 13.19 32, 37, 38 (Avg:37)
26 Cindy Holden San Juan 6 6:07:00 14.6, 11.8 13.08 36, 51, 47 (Avg:49)
14 Emma Masters Amarillo Park True Infatuation 7 6:15:00 13.1, 12.4 12.80 36, 47, 54 (Avg:50)
48 Kaylea Maher Sangah The Messiah 8 6:32:00 12.7, 11.7 12.24 49, 51, 56 (Avg:53)
41 Christal Rizk Eus Warman 9 6:46:00 12.8, 10.9 11.82 42, 47, 53 (Avg:50)
46 Jan Tyrrell Steel Poppy Springbrock 10 6:49:00 13.1, 10.5 11.74 35, 48, 51 (Avg:49)
72 Chloe Bews American Gothic 11 6:58:00 11.5, 11.4 11.48 40, 53, 53 (Avg:53)
52 Tamara Prentice Danic Park Tingha 12 7:13:00 11.4, 10.7 11.09 43, 46, 50 (Avg:48)
37 Di Kupsch Fortaleza Ascira 13 7:23:00 9.4, 12.6 10.84 31, 44, 44 (Avg:44)
36 Mandy Doyle Aqaba Pride Of Erin 14 7:28:00 9.9, 11.5 10.71 35, 47, 49 (Avg:48)
63 Carly Nix Rowallan Rufous 15 7:42:00 10.3, 10.4 10.39 37, 43, 46 (Avg:44)
56 Rachel Brown Davadi 16 7:43:00 8.8, 12.4 10.37 39, 44, 55 (Avg:49)
38 Mel Jacobs Fortaleza Mystical Silver 17 7:44:00 9.9, 10.7 10.34 40, 42, 49 (Avg:45)
20 Chez Barlow Caramea Jazira Under Novice Time L2 0:00:00 13.3, 13.6 - 30, 42, 44 (Avg:43)
44 Karen Fields Dunwingeri Jasim Lame L2 0:00:00 18.6, 17.3 - 33, 39, 44 (Avg:41)
34 Bianca Porter Phox KEI Heart Rate L2 0:00:00 10.3, 11.2 - 43, 50, 62 (Avg:56)
Junior
6 Isabel Foster Bradali Ice N Rain 1 (BC) 6:07:00 14.8, 11.7 13.08 38, 46, 50 (Avg:48)
17 Finn Mansbridge Shannonwood Isra 2 6:46:00 12.4, 11.2 11.82 44, 41, 47 (Avg:44)
22 Ellie Kreicbergs Hill Stone El Shahir 3 7:17:00 11.4, 10.5 10.98 35, 45, 51 (Avg:48)
23 Emily Markey Briallyn Kirra Bint Zanir 3 7:17:00 11.4, 10.5 10.98 43, 43, 45 (Avg:44)
61 Talyn Nix Razorback Sugar N Spice 5 7:42:00 10.3, 10.4 10.39 31, 35, 40 (Avg:37)
42 Emma Dimech Morocco Lame L2 0:00:00 12.9, 11.0 - 32, 53, 60 (Avg:56)